Time;durP1;ratioP1;P1;durP2;ratioP2;P2;SDS_P1;SDS_P2;PMS_P1;PMS_P2;Temp;Humidity;BMP_temperature;BMP_pressure;BME280_temperature;BME280_humidity;BME280_pressure;Samples;Min_cycle;Max_cycle;Signal;HPM_P1;HPM_P2
2022/04/26 03:36:26;;;;;;;;;;;;;;;-143.90;100.00;55244.25;2094670;28;19916;-65
2022/04/26 03:37:47;;;;;;;;;;;;;;;-143.90;100.00;55230.34;2096331;28;19928;-66
2022/04/26 03:39:07;;;;;;;;;;;;;;;-143.90;100.00;55287.94;2098065;28;19931;-65
2022/04/26 03:40:28;;;;;;;;;;;;;;;-143.90;100.00;55252.19;2097861;28;19924;-65
2022/04/26 03:41:49;;;;;;;;;;;;;;;-143.90;100.00;55289.94;2097518;28;19920;-65
2022/04/26 03:43:10;;;;;;;;;;;;;;;-143.90;100.00;55281.97;2095356;28;20751;-65
2022/04/26 03:44:30;;;;;;;;;;;;;;;-143.90;100.00;55226.38;2096695;28;19920;-65
2022/04/26 03:45:52;;;;;;;;;;;;;;;-143.90;100.00;55254.19;2098415;28;19955;-65
2022/04/26 03:47:13;;;;;;;;;;;;;;;-143.90;100.00;55258.16;2088244;28;19956;-64
2022/04/26 03:48:34;;;;;;;;;;;;;;;-143.90;100.00;55252.19;2092931;28;19920;-65
2022/04/26 03:49:54;;;;;;;;;;;;;;;-143.90;100.00;55254.19;2097790;28;19955;-65
2022/04/26 03:51:15;;;;;;;;;;;;;;;-143.90;100.00;55270.06;2097504;28;20325;-64
2022/04/26 03:52:39;;;;;;;;;;;;;;;-143.90;100.00;55238.31;2096954;28;20554;-65
2022/04/26 03:54:00;;;;;;;;;;;;;;;-143.90;100.00;55270.06;2097855;28;19947;-64
2022/04/26 03:55:21;;;;;;;;;;;;;;;-143.90;100.00;55234.31;2097122;28;19927;-65
2022/04/26 03:56:41;;;;;;;;;;;;;;;-143.90;100.00;55208.50;2097586;28;20010;-65
2022/04/26 03:58:02;;;;;;;;;;;;;;;-143.90;100.00;55274.03;2097126;28;19926;-65
2022/04/26 03:59:23;;;;;;;;;;;;;;;-143.90;100.00;55242.28;2096553;28;20445;-65
2022/04/26 04:00:43;;;;;;;;;;;;;;;-143.90;100.00;55238.31;2097159;28;20018;-64
2022/04/26 04:02:04;;;;;;;;;;;;;;;-143.90;100.00;55254.19;2096006;28;20034;-65
2022/04/26 04:03:25;;;;;;;;;;;;;;;-143.90;100.00;55274.03;2094810;28;20755;-64
2022/04/26 04:04:46;;;;;;;;;;;;;;;-143.90;100.00;55250.22;2095729;28;19935;-64
2022/04/26 04:06:07;;;;;;;;;;;;;;;-143.90;100.00;55250.22;2097539;28;19977;-65
2022/04/26 04:07:27;;;;;;;;;;;;;;;-143.90;100.00;55240.28;2095688;28;19921;-65
2022/04/26 04:08:48;;;;;;;;;;;;;;;-143.90;100.00;55244.25;2098027;27;19926;-64
2022/04/26 04:10:09;;;;;;;;;;;;;;;-143.90;100.00;55262.13;2096228;28;19920;-65
2022/04/26 04:11:29;;;;;;;;;;;;;;;-143.90;100.00;55260.16;2095394;28;20015;-65
2022/04/26 04:12:50;;;;;;;;;;;;;;;-143.90;100.00;55254.19;2094150;28;20498;-65
2022/04/26 04:14:13;;;;;;;;;;;;;;;-143.90;100.00;55246.25;2096081;28;20092;-65
2022/04/26 04:15:34;;;;;;;;;;;;;;;-143.90;100.00;55240.28;2094384;28;19926;-65
2022/04/26 04:16:57;;;;;;;;;;;;;;;-143.90;100.00;55258.16;2098205;28;19930;-65
2022/04/26 04:19:58;;;;;;;;;;;;;;;-143.90;100.00;55254.19;2097267;28;19927;-65
2022/04/26 04:21:19;;;;;;;;;;;;;;;-143.90;100.00;55238.31;2088207;28;19920;-65
2022/04/26 04:22:40;;;;;;;;;;;;;;;-143.90;100.00;55268.09;2090209;28;19932;-65
2022/04/26 04:24:01;;;;;;;;;;;;;;;-143.90;100.00;55258.16;2096489;28;19928;-64
2022/04/26 04:25:22;;;;;;;;;;;;;;;-143.90;100.00;55266.09;2094872;28;19923;-65
2022/04/26 04:26:43;;;;;;;;;;;;;;;-143.90;100.00;55244.25;2096622;28;19920;-65
2022/04/26 04:28:03;;;;;;;;;;;;;;;-143.90;100.00;55226.38;2097424;28;19973;-65
2022/04/26 04:29:24;;;;;;;;;;;;;;;-143.90;100.00;55214.47;2097858;28;19932;-65
2022/04/26 04:30:47;;;;;;;;;;;;;;;-143.90;100.00;55270.06;2097000;28;20620;-64
2022/04/26 04:32:08;;;;;;;;;;;;;;;-143.90;100.00;55250.22;2097573;28;19973;-65
2022/04/26 04:33:30;;;;;;;;;;;;;;;-143.90;100.00;55248.22;2096874;28;19916;-64
2022/04/26 04:34:50;;;;;;;;;;;;;;;-143.90;100.00;55262.13;2098059;28;19930;-65
2022/04/26 04:36:11;;;;;;;;;;;;;;;-143.90;100.00;55238.31;2096598;28;19973;-65
2022/04/26 04:37:32;;;;;;;;;;;;;;;-143.90;100.00;55297.88;2098947;28;20549;-64
2022/04/26 04:38:53;;;;;;;;;;;;;;;-143.90;100.00;55256.16;2097117;28;19916;-65
2022/04/26 04:40:13;;;;;;;;;;;;;;;-143.90;100.00;55222.41;2096758;28;19920;-65
2022/04/26 04:41:37;;;;;;;;;;;;;;;-143.90;100.00;55264.13;2096517;28;19924;-65
2022/04/26 04:42:58;;;;;;;;;;;;;;;-143.90;100.00;55234.31;2096117;28;20380;-65
2022/04/26 04:44:19;;;;;;;;;;;;;;;-143.90;100.00;55254.19;2095555;28;19927;-65
2022/04/26 04:45:40;;;;;;;;;;;;;;;-143.90;100.00;55214.47;2096416;28;19924;-65
2022/04/26 04:47:00;;;;;;;;;;;;;;;-143.90;100.00;55232.34;2097199;28;19917;-65
2022/04/26 04:48:21;;;;;;;;;;;;;;;-143.90;100.00;55278.00;2094409;28;20490;-64
2022/04/26 04:49:42;;;;;;;;;;;;;;;-143.90;100.00;55250.22;2097085;28;19927;-65
2022/04/26 04:51:02;;;;;;;;;;;;;;;-143.90;100.00;55212.50;2095413;28;20038;-65
2022/04/26 04:52:23;;;;;;;;;;;;;;;-143.90;100.00;55250.22;2097911;28;19920;-65
2022/04/26 04:53:44;;;;;;;;;;;;;;;-143.90;100.00;55230.34;2095663;28;20015;-65
2022/04/26 04:55:05;;;;;;;;;;;;;;;-143.90;100.00;55214.47;2094414;28;19920;-65
2022/04/26 04:56:26;;;;;;;;;;;;;;;-143.90;100.00;55268.09;2096385;28;20334;-65
2022/04/26 04:57:47;;;;;;;;;;;;;;;-143.90;100.00;55242.28;2095901;28;19935;-65
2022/04/26 04:59:07;;;;;;;;;;;;;;;-143.90;100.00;55278.00;2097068;28;19976;-65
2022/04/26 05:00:28;;;;;;;;;;;;;;;-143.90;100.00;55268.09;2097299;28;19927;-66
2022/04/26 05:01:49;;;;;;;;;;;;;;;-143.90;100.00;55266.09;2096728;28;20378;-65
2022/04/26 05:03:09;;;;;;;;;;;;;;;-143.90;100.00;55222.41;2096129;28;20383;-65
2022/04/26 05:04:30;;;;;;;;;;;;;;;-143.90;100.00;55238.31;2096581;28;19920;-65
2022/04/26 05:05:51;;;;;;;;;;;;;;;-143.90;100.00;55238.31;2095094;28;19924;-64
2022/04/26 05:07:11;;;;;;;;;;;;;;;-143.90;100.00;55270.06;2096849;28;19923;-65
2022/04/26 05:08:32;;;;;;;;;;;;;;;-143.90;100.00;55254.19;2088449;28;20273;-64
2022/04/26 05:09:54;;;;;;;;;;;;;;;-143.90;100.00;55250.22;2093900;28;19932;-64
2022/04/26 05:11:14;;;;;;;;;;;;;;;-143.90;100.00;55234.31;2095275;28;19919;-65
2022/04/26 05:12:35;;;;;;;;;;;;;;;-143.90;100.00;55230.34;2095873;28;19954;-65
2022/04/26 05:13:55;;;;;;;;;;;;;;;-143.90;100.00;55222.41;2094911;28;20403;-65
2022/04/26 05:15:16;;;;;;;;;;;;;;;-143.90;100.00;55281.97;2096688;28;19924;-64
2022/04/26 05:16:37;;;;;;;;;;;;;;;-143.90;100.00;55254.19;2097831;28;19916;-65
2022/04/26 05:17:58;;;;;;;;;;;;;;;-143.90;100.00;55226.38;2096244;28;19921;-65
2022/04/26 05:19:19;;;;;;;;;;;;;;;-143.90;100.00;55262.13;2095895;28;19924;-64
2022/04/26 05:20:40;;;;;;;;;;;;;;;-143.90;100.00;55252.19;2097052;28;19943;-65
2022/04/26 05:22:00;;;;;;;;;;;;;;;-143.90;100.00;55222.41;2095641;28;19916;-65
2022/04/26 05:25:00;;;;;;;;;;;;;;;-143.90;100.00;55254.19;2095878;28;19924;-65
2022/04/26 05:26:21;;;;;;;;;;;;;;;-143.90;100.00;55254.19;2095873;28;19931;-64
2022/04/26 05:27:42;;;;;;;;;;;;;;;-143.90;100.00;55224.41;2096014;28;19927;-64
2022/04/26 05:29:05;;;;;;;;;;;;;;;-143.90;100.00;55258.16;2096841;28;19933;-65
2022/04/26 05:30:26;;;;;;;;;;;;;;;-143.90;100.00;55242.28;2087628;28;19996;-65
2022/04/26 05:31:47;;;;;;;;;;;;;;;-143.90;100.00;55285.97;2094431;28;19916;-65
2022/04/26 05:33:07;;;;;;;;;;;;;;;-143.90;100.00;55258.16;2096593;28;19931;-65
2022/04/26 05:34:29;;;;;;;;;;;;;;;-143.90;100.00;55266.09;2095440;28;20041;-65
2022/04/26 05:35:49;;;;;;;;;;;;;;;-143.90;100.00;55238.31;2096205;28;20014;-65
2022/04/26 05:37:10;;;;;;;;;;;;;;;-143.90;100.00;55254.19;2096167;28;19920;-65
2022/04/26 05:38:31;;;;;;;;;;;;;;;-143.90;100.00;55242.28;2096488;28;19968;-64
2022/04/26 05:39:52;;;;;;;;;;;;;;;-143.90;100.00;55214.47;2095480;28;19923;-66
2022/04/26 05:41:13;;;;;;;;;;;;;;;-143.90;100.00;55238.31;2096585;28;19921;-65
2022/04/26 05:42:38;;;;;;;;;;;;;;;-143.90;100.00;55268.09;2095639;28;20689;-65
2022/04/26 05:43:58;;;;;;;;;;;;;;;-143.90;100.00;55256.16;2095243;28;20399;-65
2022/04/26 05:45:19;;;;;;;;;;;;;;;-143.90;100.00;55238.31;2095902;28;19959;-65
2022/04/26 05:46:40;;;;;;;;;;;;;;;-143.90;100.00;55246.25;2095922;28;19927;-65
2022/04/26 05:48:00;;;;;;;;;;;;;;;-143.90;100.00;55238.31;2096103;28;19920;-65
2022/04/26 05:49:21;;;;;;;;;;;;;;;-143.90;100.00;55270.06;2097013;28;19927;-65
2022/04/26 05:50:42;;;;;;;;;;;;;;;-143.90;100.00;55280.00;2096775;28;19939;-65
2022/04/26 05:52:03;;;;;;;;;;;;;;;-143.90;100.00;55226.38;2096504;28;19928;-65
2022/04/26 05:53:24;;;;;;;;;;;;;;;-143.90;100.00;55278.00;2096119;28;20319;-65
2022/04/26 05:54:44;;;;;;;;;;;;;;;-143.90;100.00;55252.19;2093429;28;19924;-65
2022/04/26 05:56:06;;;;;;;;;;;;;;;-143.90;100.00;55254.19;2095973;28;20372;-65
2022/04/26 05:57:27;;;;;;;;;;;;;;;-143.90;100.00;55232.34;2095585;28;19924;-65
2022/04/26 05:58:48;;;;;;;;;;;;;;;-143.90;100.00;55270.06;2093973;28;19920;-64
2022/04/26 06:00:10;;;;;;;;;;;;;;;-143.90;100.00;55234.31;2095477;28;19943;-65
2022/04/26 06:01:33;;;;;;;;;;;;;;;-143.90;100.00;55250.22;2094842;28;19916;-65
2022/04/26 06:02:54;;;;;;;;;;;;;;;-143.90;100.00;55238.31;2095333;28;20035;-64
2022/04/26 06:04:15;;;;;;;;;;;;;;;-143.90;100.00;55270.06;2097031;28;20004;-65
2022/04/26 06:05:35;;;;;;;;;;;;;;;-143.90;100.00;55254.19;2096940;28;20371;-65
2022/04/26 06:06:56;;;;;;;;;;;;;;;-143.90;100.00;55246.25;2096022;28;19955;-65
2022/04/26 06:08:17;;;;;;;;;;;;;;;-143.90;100.00;55218.44;2095887;28;20038;-64
2022/04/26 06:09:38;;;;;;;;;;;;;;;-143.90;100.00;55278.00;2095929;28;19920;-65
2022/04/26 06:10:58;;;;;;;;;;;;;;;-143.90;100.00;55264.13;2095549;28;19966;-64
2022/04/26 06:12:20;;;;;;;;;;;;;;;-143.90;100.00;55252.19;2097025;28;19931;-65
2022/04/26 06:13:40;;;;;;;;;;;;;;;-143.90;100.00;55250.22;2097319;28;20372;-65
2022/04/26 06:15:02;;;;;;;;;;;;;;;-143.90;100.00;55232.34;2097291;28;19932;-65
2022/04/26 06:16:23;;;;;;;;;;;;;;;-143.90;100.00;55234.31;2097215;28;19920;-64
2022/04/26 06:17:44;;;;;;;;;;;;;;;-143.90;100.00;55242.28;2097817;28;19923;-64
2022/04/26 06:19:05;;;;;;;;;;;;;;;-143.90;100.00;55246.25;2097224;28;19928;-63
2022/04/26 06:20:25;;;;;;;;;;;;;;;-143.90;100.00;55250.22;2088250;28;20427;-64
2022/04/26 06:21:46;;;;;;;;;;;;;;;-143.90;100.00;55230.34;2094328;28;19924;-64
2022/04/26 06:23:07;;;;;;;;;;;;;;;-143.90;100.00;55242.28;2097344;28;20374;-63
2022/04/26 06:24:28;;;;;;;;;;;;;;;-143.90;100.00;55220.44;2097468;28;19936;-63
2022/04/26 06:25:49;;;;;;;;;;;;;;;-143.90;100.00;55250.22;2096686;28;20034;-63
2022/04/26 06:27:10;;;;;;;;;;;;;;;-143.90;100.00;55254.19;2097795;28;19916;-63
2022/04/26 06:28:31;;;;;;;;;;;;;;;-143.90;100.00;55254.19;2098579;28;20019;-63
2022/04/26 06:29:52;;;;;;;;;;;;;;;-143.90;100.00;55238.31;2098606;28;20021;-63
2022/04/26 06:31:12;;;;;;;;;;;;;;;-143.90;100.00;55256.16;2099857;28;19924;-63
2022/04/26 06:32:33;;;;;;;;;;;;;;;-143.90;100.00;55234.31;2096644;28;19924;-63
2022/04/26 06:33:54;;;;;;;;;;;;;;;-143.90;100.00;55281.97;2096651;28;19935;-64
2022/04/26 06:35:14;;;;;;;;;;;;;;;-143.90;100.00;55264.13;2099095;27;20027;-63
2022/04/26 06:36:35;;;;;;;;;;;;;;;-143.90;100.00;55274.03;2097609;28;19920;-63
2022/04/26 06:37:58;;;;;;;;;;;;;;;-143.90;100.00;55262.13;2097359;28;19924;-63
2022/04/26 06:39:18;;;;;;;;;;;;;;;-143.90;100.00;55256.16;2095063;28;19947;-64
2022/04/26 06:40:39;;;;;;;;;;;;;;;-143.90;100.00;55262.13;2097002;28;19924;-64
2022/04/26 06:42:00;;;;;;;;;;;;;;;-143.90;100.00;55230.34;2097233;28;20028;-63
2022/04/26 06:43:20;;;;;;;;;;;;;;;-143.90;100.00;55246.25;2098461;28;19916;-64
2022/04/26 06:44:41;;;;;;;;;;;;;;;-143.90;100.00;55220.44;2089314;28;19930;-63
2022/04/26 06:46:02;;;;;;;;;;;;;;;-143.90;100.00;55226.38;2095229;28;20022;-63
2022/04/26 06:47:23;;;;;;;;;;;;;;;-143.90;100.00;55234.31;2095095;28;20010;-63
2022/04/26 06:48:48;;;;;;;;;;;;;;;-143.90;100.00;55246.25;2088908;28;19924;-63
2022/04/26 06:50:10;;;;;;;;;;;;;;;-143.90;100.00;55246.25;2095270;28;20735;-64
2022/04/26 06:51:33;;;;;;;;;;;;;;;-143.90;100.00;55250.22;2089247;28;21962;-63
2022/04/26 06:52:54;;;;;;;;;;;;;;;-143.90;100.00;55246.25;2095920;28;19942;-63
2022/04/26 06:54:14;;;;;;;;;;;;;;;-143.90;100.00;55254.19;2098285;28;19916;-62
2022/04/26 06:55:35;;;;;;;;;;;;;;;-143.90;100.00;55250.22;2096446;28;19931;-63
2022/04/26 06:56:56;;;;;;;;;;;;;;;-143.90;100.00;55244.25;2097017;28;20029;-63
2022/04/26 06:58:17;;;;;;;;;;;;;;;-143.90;100.00;55254.19;2097963;28;20394;-63
2022/04/26 06:59:39;;;;;;;;;;;;;;;-143.90;100.00;55240.28;2097734;28;20011;-63
2022/04/26 07:01:00;;;;;;;;;;;;;;;-143.90;100.00;55254.19;2098281;28;20010;-63
2022/04/26 07:02:22;;;;;;;;;;;;;;;-143.90;100.00;55240.28;2097453;28;19962;-63
2022/04/26 07:03:42;;;;;;;;;;;;;;;-143.90;100.00;55266.09;2096821;28;19940;-64
2022/04/26 07:05:03;;;;;;;;;;;;;;;-143.90;100.00;55262.13;2096541;28;20014;-63
2022/04/26 07:06:24;;;;;;;;;;;;;;;-143.90;100.00;55250.22;2097857;28;19917;-63
2022/04/26 07:07:45;;;;;;;;;;;;;;;-143.90;100.00;55276.03;2093161;28;19939;-63
2022/04/26 07:09:06;;;;;;;;;;;;;;;-143.90;100.00;55248.22;2095229;28;19921;-63
2022/04/26 07:10:28;;;;;;;;;;;;;;;-143.90;100.00;55212.50;2098054;28;19921;-63
2022/04/26 07:11:49;;;;;;;;;;;;;;;-143.90;100.00;55242.28;2097957;28;19916;-63
2022/04/26 07:13:10;;;;;;;;;;;;;;;-143.90;100.00;55244.25;2096926;28;19920;-63
2022/04/26 07:14:31;;;;;;;;;;;;;;;-143.90;100.00;55210.50;2097586;28;19923;-63
2022/04/26 07:15:52;;;;;;;;;;;;;;;-143.90;100.00;55262.13;2097041;28;19924;-63
2022/04/26 07:17:12;;;;;;;;;;;;;;;-143.90;100.00;55258.16;2097738;28;19960;-63
2022/04/26 07:18:36;;;;;;;;;;;;;;;-143.90;100.00;55234.31;2096891;28;19920;-63
2022/04/26 07:19:57;;;;;;;;;;;;;;;-143.90;100.00;55258.16;2089363;28;19917;-63
2022/04/26 07:21:18;;;;;;;;;;;;;;;-143.90;100.00;55258.16;2095650;28;19954;-63
2022/04/26 07:22:38;;;;;;;;;;;;;;;-143.90;100.00;55216.47;2097461;28;19916;-63
2022/04/26 07:23:59;;;;;;;;;;;;;;;-143.90;100.00;55258.16;2097207;28;20397;-63
2022/04/26 07:25:20;;;;;;;;;;;;;;;-143.90;100.00;55266.09;2097128;28;19920;-63
2022/04/26 07:26:40;;;;;;;;;;;;;;;-143.90;100.00;55270.06;2098362;28;19931;-63
2022/04/26 07:28:01;;;;;;;;;;;;;;;-143.90;100.00;55242.28;2097762;28;19931;-63
2022/04/26 07:29:22;;;;;;;;;;;;;;;-143.90;100.00;55250.22;2096354;28;19924;-62
2022/04/26 07:30:46;;;;;;;;;;;;;;;-143.90;100.00;55262.13;2089027;28;22411;-63
2022/04/26 07:32:07;;;;;;;;;;;;;;;-143.90;100.00;55254.19;2091859;28;20015;-63
2022/04/26 07:35:09;;;;;;;;;;;;;;;-143.90;100.00;55238.31;2096104;28;20024;-63
2022/04/26 07:36:30;;;;;;;;;;;;;;;-143.90;100.00;55208.50;2096813;28;21042;-63
2022/04/26 07:37:52;;;;;;;;;;;;;;;-143.90;100.00;55246.25;2099097;27;19927;-63
2022/04/26 07:39:14;;;;;;;;;;;;;;;-143.90;100.00;55230.34;2096823;28;20015;-64
2022/04/26 07:40:35;;;;;;;;;;;;;;;-143.90;100.00;55260.16;2096300;28;20045;-64
2022/04/26 07:41:56;;;;;;;;;;;;;;;-143.90;100.00;55226.38;2096492;28;20273;-63
2022/04/26 07:43:17;;;;;;;;;;;;;;;-143.90;100.00;55234.31;2087866;28;20848;-64
2022/04/26 07:44:39;;;;;;;;;;;;;;;-143.90;100.00;55218.44;2093476;28;20366;-64
2022/04/26 07:46:00;;;;;;;;;;;;;;;-143.90;100.00;55242.28;2097260;28;19924;-64
2022/04/26 07:47:24;;;;;;;;;;;;;;;-143.90;100.00;55250.22;2098315;28;19916;-64
2022/04/26 07:48:44;;;;;;;;;;;;;;;-143.90;100.00;55244.25;2097488;28;19920;-64
2022/04/26 07:50:05;;;;;;;;;;;;;;;-143.90;100.00;55230.34;2095476;28;19916;-64
2022/04/26 07:51:26;;;;;;;;;;;;;;;-143.90;100.00;55238.31;2097626;28;19930;-64
2022/04/26 07:52:46;;;;;;;;;;;;;;;-143.90;100.00;55250.22;2095927;28;19952;-64
2022/04/26 07:54:08;;;;;;;;;;;;;;;-143.90;100.00;55182.69;2097575;28;20014;-64
2022/04/26 07:55:29;;;;;;;;;;;;;;;-143.90;100.00;55202.56;2096891;28;19916;-64
2022/04/26 07:56:50;;;;;;;;;;;;;;;-143.90;100.00;55258.16;2095670;28;20438;-63
2022/04/26 07:58:10;;;;;;;;;;;;;;;-143.90;100.00;55222.41;2095244;28;19923;-64
2022/04/26 07:59:32;;;;;;;;;;;;;;;-143.90;100.00;55222.41;2097381;28;20718;-64
2022/04/26 08:00:52;;;;;;;;;;;;;;;-143.90;100.00;55256.16;2096379;28;20817;-64
2022/04/26 08:02:14;;;;;;;;;;;;;;;-143.90;100.00;55222.41;2097314;28;20042;-64
2022/04/26 08:03:35;;;;;;;;;;;;;;;-143.90;100.00;55278.00;2097658;28;19920;-64
2022/04/26 08:05:01;;;;;;;;;;;;;;;-143.90;100.00;55198.59;2097334;28;20199;-64
2022/04/26 08:06:21;;;;;;;;;;;;;;;-143.90;100.00;55214.47;2098122;28;19924;-64
2022/04/26 08:07:42;;;;;;;;;;;;;;;-143.90;100.00;55234.31;2095734;28;19920;-64
2022/04/26 08:09:03;;;;;;;;;;;;;;;-143.90;100.00;55202.56;2096833;28;19958;-65
2022/04/26 08:10:24;;;;;;;;;;;;;;;-143.90;99.67;55196.59;2098259;28;19919;-65
2022/04/26 08:11:46;;;;;;;;;;;;;;;-143.90;97.49;55194.63;2096811;28;19908;-65
2022/04/26 08:13:07;;;;;;;;;;;;;;;-143.90;93.85;55216.47;2096973;28;19924;-64
2022/04/26 08:14:28;;;;;;;;;;;;;;;-143.90;88.04;55210.50;2096603;28;19999;-65
2022/04/26 08:15:49;;;;;;;;;;;;;;;-143.90;84.56;55172.78;2096194;28;19922;-65
2022/04/26 08:17:15;;;;;;;;;;;;;;;-143.90;79.15;55182.69;2097082;28;20046;-64
2022/04/26 08:18:36;;;;;;;;;;;;;;;-143.90;77.18;55210.50;2095898;28;19954;-66
2022/04/26 08:19:57;;;;;;;;;;;;;;;-143.90;72.31;55210.50;2096649;28;19931;-66
2022/04/26 08:21:18;;;;;;;;;;;;;;;-143.90;71.77;55188.66;2097216;28;19927;-66
2022/04/26 08:22:38;;;;;;;;;;;;;;;-143.90;66.48;55150.94;2096753;28;20784;-64
2022/04/26 08:27:30;;;;;;;;;;;;;;;-143.90;62.39;55158.88;2096183;28;19924;-65
2022/04/26 08:28:50;;;;;;;;;;;;;;;-143.90;65.89;55216.47;2096578;28;19925;-64
2022/04/26 08:30:11;;;;;;;;;;;;;;;-143.90;64.29;55146.97;2096263;28;19920;-64
2022/04/26 08:31:32;;;;;;;;;;;;;;;-143.90;61.14;55139.03;2097885;28;19920;-65
2022/04/26 08:32:52;;;;;;;;;;;;;;;-143.90;58.13;55146.97;2098069;28;19916;-63
2022/04/26 08:34:13;;;;;;;;;;;;;;;-143.90;57.98;55202.56;2096290;28;19921;-63
2022/04/26 08:35:34;;;;;;;;;;;;;;;-143.90;60.76;55188.66;2096185;28;19916;-64
2022/04/26 08:36:55;;;;;;;;;;;;;;;-143.90;62.95;55162.84;2096797;28;19967;-64
2022/04/26 08:38:15;;;;;;;;;;;;;;;-143.90;66.34;55198.59;2096487;28;19992;-64
2022/04/26 08:39:36;;;;;;;;;;;;;;;-143.90;66.93;55198.59;2096649;28;19931;-63
2022/04/26 08:40:57;;;;;;;;;;;;;;;-143.90;70.92;55194.63;2088778;28;20458;-64
2022/04/26 08:42:18;;;;;;;;;;;;;;;-143.90;71.04;55206.53;2093920;28;19924;-63
2022/04/26 08:43:39;;;;;;;;;;;;;;;-143.90;76.40;55196.59;2095584;28;19947;-64
2022/04/26 08:45:00;;;;;;;;;;;;;;;-143.90;78.54;55186.69;2096420;28;20002;-64
2022/04/26 08:46:20;;;;;;;;;;;;;;;-143.90;75.60;55178.72;2096474;28;20459;-64
2022/04/26 08:50:59;;;;;;;;;;;;;;;-143.90;71.91;55204.53;2096299;28;20402;-64
2022/04/26 08:52:20;;;;;;;;;;;;;;;-143.90;72.33;55230.34;2096239;28;20357;-63
2022/04/26 08:53:42;;;;;;;;;;;;;;;-143.90;74.44;55218.44;2096764;28;19921;-65
2022/04/26 08:55:02;;;;;;;;;;;;;;;-143.90;74.09;55214.47;2095045;28;19965;-64
2022/04/26 08:56:23;;;;;;;;;;;;;;;-143.90;72.73;55218.44;2094909;28;20383;-63
2022/04/26 08:57:44;;;;;;;;;;;;;;;-143.90;69.48;55166.81;2096032;28;19924;-64
2022/04/26 08:59:05;;;;;;;;;;;;;;;-143.90;65.16;55174.75;2096780;28;20051;-65
2022/04/26 09:00:26;;;;;;;;;;;;;;;-143.90;63.34;55182.69;2096683;28;19916;-64
2022/04/26 09:01:47;;;;;;;;;;;;;;;-143.90;63.22;55186.69;2097400;28;20792;-65
2022/04/26 09:03:08;;;;;;;;;;;;;;;-143.90;64.20;55198.59;2095645;28;19916;-64
2022/04/26 09:04:29;;;;;;;;;;;;;;;-143.90;62.90;55206.53;2095638;28;19955;-64
2022/04/26 09:06:01;;;;;;;;;;;;;;;-143.90;60.94;55206.53;2088617;28;19916;-64
2022/04/26 09:07:32;;;;;;;;;;;;;;;-143.90;66.52;55230.34;2094560;28;20917;-65
2022/04/26 09:09:04;;;;;;;;;;;;;;;-143.90;64.22;55184.69;2097081;28;19916;-65
2022/04/26 09:10:25;;;;;;;;;;;;;;;-143.90;62.71;55182.69;2096617;28;20573;-64
2022/04/26 09:11:47;;;;;;;;;;;;;;;-143.90;60.48;55178.72;2096692;28;19977;-65
2022/04/26 09:13:09;;;;;;;;;;;;;;;-143.90;59.35;55206.53;2097321;28;19916;-62
2022/04/26 09:14:30;;;;;;;;;;;;;;;-143.90;60.51;55188.66;2096876;28;19928;-62
2022/04/26 09:15:55;;;;;;;;;;;;;;;-143.90;60.56;55214.47;2097314;28;19934;-63
2022/04/26 09:17:18;;;;;;;;;;;;;;;-143.90;63.08;55186.69;2095719;28;19921;-64
2022/04/26 09:18:39;;;;;;;;;;;;;;;-143.90;66.70;55204.53;2095923;28;20356;-64
2022/04/26 09:20:00;;;;;;;;;;;;;;;-143.90;67.46;55194.63;2098182;27;19920;-63
2022/04/26 09:21:21;;;;;;;;;;;;;;;-143.90;69.07;55242.28;2096421;28;20040;-64
2022/04/26 09:22:42;;;;;;;;;;;;;;;-143.90;71.49;55238.31;2095392;28;19920;-63
2022/04/26 09:24:05;;;;;;;;;;;;;;;-143.90;71.91;55210.50;2095919;28;19965;-64
2022/04/26 09:25:26;;;;;;;;;;;;;;;-143.90;72.42;55198.59;2096049;28;20753;-64
2022/04/26 09:26:46;;;;;;;;;;;;;;;-143.90;71.86;55194.63;2096901;28;19935;-67
2022/04/26 09:28:08;;;;;;;;;;;;;;;-143.90;67.69;55182.69;2088727;28;19959;-66
2022/04/26 09:29:28;;;;;;;;;;;;;;;-143.90;68.66;55222.41;2093581;28;19920;-67
2022/04/26 09:30:49;;;;;;;;;;;;;;;-143.90;69.55;55212.50;2094963;28;19970;-64
2022/04/26 09:32:10;;;;;;;;;;;;;;;-143.90;67.68;55194.63;2096560;28;19920;-64
2022/04/26 09:33:34;;;;;;;;;;;;;;;-143.90;65.39;55200.56;2096326;28;19924;-63
2022/04/26 09:34:55;;;;;;;;;;;;;;;-143.90;64.53;55190.66;2096477;28;20455;-64
2022/04/26 09:36:16;;;;;;;;;;;;;;;-143.90;61.54;55182.69;2096755;28;20452;-65
2022/04/26 09:37:42;;;;;;;;;;;;;;;-143.90;64.96;55160.84;2095867;28;19981;-64
2022/04/26 09:39:03;;;;;;;;;;;;;;;-143.90;63.01;55198.59;2097603;28;19927;-65
2022/04/26 09:40:28;;;;;;;;;;;;;;;-143.90;62.46;55200.56;2096533;28;19981;-65
2022/04/26 09:41:49;;;;;;;;;;;;;;;-143.90;62.92;55222.41;2095810;28;19963;-65
2022/04/26 09:43:15;;;;;;;;;;;;;;;-143.90;61.17;55186.69;2096451;28;19924;-63
2022/04/26 09:44:40;;;;;;;;;;;;;;;-143.90;60.94;55222.41;2095230;28;20463;-64
2022/04/26 09:46:01;;;;;;;;;;;;;;;-143.90;63.15;55198.59;2092374;28;19921;-65
2022/04/26 09:47:34;;;;;;;;;;;;;;;-143.90;66.50;55222.41;2094847;28;19916;-65
2022/04/26 09:48:55;;;;;;;;;;;;;;;-143.90;64.07;55210.50;2096721;28;19920;-64
2022/04/26 09:50:17;;;;;;;;;;;;;;;-143.90;63.78;55214.47;2095713;28;19920;-65
2022/04/26 09:51:37;;;;;;;;;;;;;;;-143.90;63.71;55214.47;2095551;28;19923;-64
2022/04/26 09:53:02;;;;;;;;;;;;;;;-143.90;63.90;55194.63;2095972;28;19924;-64
2022/04/26 09:54:22;;;;;;;;;;;;;;;-143.90;66.70;55206.53;2095390;28;19916;-63
2022/04/26 09:55:44;;;;;;;;;;;;;;;-143.90;66.32;55192.63;2096648;28;20818;-64
2022/04/26 09:57:05;;;;;;;;;;;;;;;-143.90;66.72;55194.63;2097992;28;19959;-65
2022/04/26 09:58:27;;;;;;;;;;;;;;;-143.90;69.84;55212.50;2094333;28;19951;-65
2022/04/26 09:59:47;;;;;;;;;;;;;;;-143.90;71.85;55270.06;2095879;28;20258;-65
2022/04/26 10:01:08;;;;;;;;;;;;;;;-143.90;69.51;55238.31;2096323;28;19920;-64
2022/04/26 10:02:32;;;;;;;;;;;;;;;-143.90;65.86;55242.28;2095413;28;19916;-64
2022/04/26 10:03:52;;;;;;;;;;;;;;;-143.90;66.71;55238.31;2096768;28;19924;-65
2022/04/26 10:05:14;;;;;;;;;;;;;;;-143.90;63.58;55188.66;2096706;28;20025;-65
2022/04/26 10:06:36;;;;;;;;;;;;;;;-143.90;61.31;55178.72;2097289;28;20018;-65
2022/04/26 10:07:57;;;;;;;;;;;;;;;-143.90;59.67;55226.38;2094499;28;19932;-64
2022/04/26 10:09:17;;;;;;;;;;;;;;;-143.90;60.89;55214.47;2096267;28;19994;-65
2022/04/26 10:10:39;;;;;;;;;;;;;;;-143.90;62.90;55222.41;2095696;28;19993;-65
2022/04/26 10:12:00;;;;;;;;;;;;;;;-143.90;63.71;55218.44;2096425;28;19920;-65
2022/04/26 10:13:39;;;;;;;;;;;;;;;-143.90;62.97;55200.56;2087535;28;19916;-65
2022/04/26 10:15:00;;;;;;;;;;;;;;;-143.90;61.86;55234.31;2096356;28;20413;-65
2022/04/26 10:16:21;;;;;;;;;;;;;;;-143.90;62.49;55210.50;2096319;28;20057;-65
2022/04/26 10:17:47;;;;;;;;;;;;;;;-143.90;65.00;55226.38;2093745;28;19920;-63
2022/04/26 10:19:09;;;;;;;;;;;;;;;-143.90;66.79;55202.56;2096831;28;19916;-65
2022/04/26 10:20:48;;;;;;;;;;;;;;;-143.90;66.89;55222.41;2096274;28;19927;-64
2022/04/26 10:22:10;;;;;;;;;;;;;;;-143.90;63.77;55254.19;2095472;28;19923;-63
2022/04/26 10:23:55;;;;;;;;;;;;;;;-143.90;61.56;55174.75;2095813;28;20678;-65
2022/04/26 10:25:17;;;;;;;;;;;;;;;-143.90;60.49;55212.50;2095488;28;19916;-65
2022/04/26 10:26:38;;;;;;;;;;;;;;;-143.90;58.79;55180.72;2096620;28;20293;-64
2022/04/26 10:28:17;;;;;;;;;;;;;;;-143.90;57.26;55202.56;2097156;28;19948;-65
2022/04/26 10:29:43;;;;;;;;;;;;;;;-143.90;58.79;55186.69;2097272;28;20036;-65
2022/04/26 10:31:03;;;;;;;;;;;;;;;-143.90;58.04;55190.66;2095841;28;20848;-65
2022/04/26 10:32:38;;;;;;;;;;;;;;;-143.90;55.46;55172.78;2095118;28;19939;-62
2022/04/26 10:33:59;;;;;;;;;;;;;;;-143.90;56.66;55184.69;2095515;28;19916;-63
2022/04/26 10:35:23;;;;;;;;;;;;;;;-143.90;57.20;55194.63;2094134;28;19967;-63
2022/04/26 10:36:44;;;;;;;;;;;;;;;-143.90;58.46;55186.69;2095365;28;19927;-63
2022/04/26 10:38:11;;;;;;;;;;;;;;;-143.90;56.73;55174.75;2088025;28;20405;-63